createdAt,value
2023-01-30T00:01:59.553Z,80.10
2023-01-30T00:04:26.297Z,80.07
2023-01-30T00:06:53.012Z,80.41
2023-01-30T00:09:19.650Z,80.21
2023-01-30T00:11:46.860Z,80.10
2023-01-30T00:14:13.659Z,80.35
2023-01-30T00:16:40.429Z,79.87
2023-01-30T00:19:07.236Z,80.16
2023-01-30T00:21:34.007Z,80.27
2023-01-30T00:24:01.089Z,80.05
2023-01-30T00:26:27.806Z,79.89
2023-01-30T00:28:54.476Z,80.40
2023-01-30T00:31:21.156Z,80.28
2023-01-30T00:33:47.832Z,80.17
2023-01-30T00:36:14.868Z,80.27
2023-01-30T00:38:41.547Z,80.60
2023-01-30T00:41:08.633Z,80.52
2023-01-30T00:43:54.001Z,80.69
2023-01-30T00:46:50.019Z,80.39
2023-01-30T00:49:16.831Z,80.45
2023-01-30T00:51:43.537Z,80.14
2023-01-30T00:54:10.234Z,80.54
2023-01-30T00:56:36.873Z,80.13
2023-01-30T00:59:03.585Z,80.11
2023-01-30T01:01:30.321Z,80.46
2023-01-30T01:03:57.001Z,80.27
2023-01-30T01:06:23.741Z,80.46
2023-01-30T01:08:50.450Z,80.41
2023-01-30T01:11:24.579Z,79.83
2023-01-30T01:13:57.423Z,79.63
2023-01-30T01:16:24.994Z,80.21
2023-01-30T01:18:51.746Z,79.70
2023-01-30T01:21:20.282Z,80.05
2023-01-30T01:23:56.027Z,79.96
2023-01-30T01:26:23.313Z,80.11
2023-01-30T01:28:54.062Z,79.88
2023-01-30T01:31:20.839Z,79.74
2023-01-30T01:33:47.587Z,80.01
2023-01-30T01:36:29.380Z,80.02
2023-01-30T01:39:01.751Z,80.08
2023-01-30T01:41:28.408Z,79.87
2023-01-30T01:44:12.443Z,79.78
2023-01-30T01:46:39.045Z,79.83
2023-01-30T01:49:27.947Z,79.41
2023-01-30T01:52:09.506Z,79.30
2023-01-30T01:54:48.501Z,79.08
2023-01-30T01:57:28.785Z,79.71
2023-01-30T02:00:05.766Z,79.75
2023-01-30T02:02:33.986Z,79.52
2023-01-30T02:05:03.561Z,79.12
2023-01-30T02:07:37.271Z,79.54
2023-01-30T02:10:05.315Z,79.25
2023-01-30T02:12:32.934Z,79.26
2023-01-30T02:15:00.876Z,79.78
2023-01-30T02:17:27.594Z,79.42
2023-01-30T02:20:16.107Z,80.20
2023-01-30T02:23:03.713Z,79.97
2023-01-30T02:25:52.675Z,79.82
2023-01-30T02:28:22.395Z,80.58
2023-01-30T02:31:16.173Z,80.55
2023-01-30T02:34:11.001Z,80.67
2023-01-30T02:36:51.799Z,80.96
2023-01-30T02:39:49.159Z,80.98
2023-01-30T02:42:43.473Z,80.92
2023-01-30T02:45:25.008Z,80.77
2023-01-30T02:48:11.865Z,80.80
2023-01-30T02:51:01.987Z,80.55
2023-01-30T02:53:33.873Z,80.76
2023-01-30T02:56:00.972Z,80.68
2023-01-30T02:58:35.837Z,81.07
2023-01-30T03:01:08.401Z,80.31
2023-01-30T03:03:49.824Z,80.65
2023-01-30T03:06:47.188Z,80.48
2023-01-30T03:09:25.690Z,79.95
2023-01-30T03:12:43.300Z,80.01
2023-01-30T03:15:20.456Z,79.62
2023-01-30T03:17:48.114Z,79.59
2023-01-30T03:20:17.073Z,79.63
2023-01-30T03:22:43.730Z,79.73
2023-01-30T03:25:14.113Z,79.35
2023-01-30T03:27:40.967Z,79.44
2023-01-30T03:30:08.413Z,79.67
2023-01-30T03:32:35.065Z,78.80
2023-01-30T03:35:01.726Z,78.14
2023-01-30T03:37:28.773Z,78.72
2023-01-30T03:39:55.444Z,78.02
2023-01-30T03:42:22.351Z,77.91
2023-01-30T03:44:49.056Z,77.37
2023-01-30T03:47:15.700Z,77.11
2023-01-30T03:49:42.363Z,76.94
2023-01-30T03:52:09.009Z,76.52
2023-01-30T03:54:35.665Z,75.70
2023-01-30T03:57:02.351Z,75.82
2023-01-30T03:59:29.049Z,75.85
2023-01-30T04:01:55.748Z,75.49
2023-01-30T04:04:23.111Z,74.90
2023-01-30T04:06:49.788Z,75.26
2023-01-30T04:09:16.475Z,74.58
2023-01-30T04:11:43.156Z,74.67
2023-01-30T04:14:09.823Z,74.45
2023-01-30T04:16:36.730Z,74.54
2023-01-30T04:19:03.560Z,73.96
2023-01-30T04:21:30.211Z,74.19
2023-01-30T04:23:56.838Z,73.85
2023-01-30T04:26:23.525Z,73.76
2023-01-30T04:28:50.255Z,74.03
2023-01-30T04:31:16.989Z,73.62
2023-01-30T04:33:43.829Z,73.27
2023-01-30T04:36:11.180Z,73.24
2023-01-30T04:38:38.674Z,72.95
2023-01-30T04:41:05.826Z,73.17
2023-01-30T04:43:33.010Z,72.56
2023-01-30T04:45:59.765Z,72.68
2023-01-30T04:48:26.693Z,72.35
2023-01-30T04:50:55.414Z,72.18
2023-01-30T04:53:22.472Z,71.90
2023-01-30T04:55:49.857Z,71.38
2023-01-30T04:58:17.429Z,71.27
2023-01-30T05:00:44.097Z,71.09
2023-01-30T05:03:11.033Z,71.23
2023-01-30T05:05:37.946Z,71.74
2023-01-30T05:08:05.013Z,70.95
2023-01-30T05:10:31.671Z,71.07
2023-01-30T05:13:02.345Z,70.36
2023-01-30T05:15:29.062Z,70.30
2023-01-30T05:17:55.713Z,70.40
2023-01-30T05:20:22.404Z,70.98
2023-01-30T05:22:49.052Z,70.07
2023-01-30T05:25:15.924Z,70.23
2023-01-30T05:27:42.892Z,70.12
2023-01-30T05:30:10.332Z,69.91
2023-01-30T05:32:36.981Z,70.34
2023-01-30T05:35:03.806Z,70.26
2023-01-30T05:37:31.023Z,69.90
2023-01-30T05:39:57.674Z,69.70
2023-01-30T05:42:24.404Z,69.52
2023-01-30T05:44:51.167Z,69.94
2023-01-30T05:47:17.815Z,69.59
2023-01-30T05:49:44.483Z,69.42
2023-01-30T05:52:11.141Z,69.38
2023-01-30T05:54:37.897Z,69.03
2023-01-30T05:57:04.546Z,68.77
2023-01-30T05:59:31.247Z,69.35
2023-01-30T06:01:57.923Z,68.67
2023-01-30T06:04:24.699Z,68.29
2023-01-30T06:06:51.427Z,68.81
2023-01-30T06:09:18.217Z,68.53
2023-01-30T06:11:44.903Z,68.79
2023-01-30T06:14:11.567Z,69.05
2023-01-30T06:16:38.329Z,69.16
2023-01-30T06:19:05.089Z,68.70
2023-01-30T06:21:31.778Z,68.83
2023-01-30T06:23:58.656Z,69.11
2023-01-30T06:26:25.587Z,68.66
2023-01-30T06:28:52.309Z,69.02
2023-01-30T06:31:19.269Z,68.50
2023-01-30T06:33:45.979Z,68.36
2023-01-30T06:36:13.041Z,68.48
2023-01-30T06:38:39.818Z,68.36
2023-01-30T06:41:06.853Z,68.48
2023-01-30T06:43:33.521Z,68.25
2023-01-30T06:46:00.470Z,68.37
2023-01-30T06:48:27.509Z,68.02
2023-01-30T06:50:54.251Z,67.71
2023-01-30T06:53:22.323Z,67.72
2023-01-30T06:55:48.999Z,68.89
2023-01-30T06:58:15.889Z,69.49
2023-01-30T07:00:43.564Z,70.03
2023-01-30T07:03:15.328Z,70.69
2023-01-30T07:05:43.773Z,70.94
2023-01-30T07:08:11.293Z,71.02
2023-01-30T07:10:38.711Z,70.97
2023-01-30T07:13:05.759Z,70.68
2023-01-30T07:15:32.717Z,70.59
2023-01-30T07:17:59.699Z,70.61
2023-01-30T07:20:26.963Z,70.20
2023-01-30T07:22:55.132Z,70.22
2023-01-30T07:25:24.280Z,70.26
2023-01-30T07:28:00.844Z,70.26
2023-01-30T07:30:29.782Z,69.62
2023-01-30T07:32:59.807Z,69.27
2023-01-30T07:35:29.216Z,68.68
2023-01-30T07:37:55.946Z,69.28
2023-01-30T07:40:23.563Z,68.96
2023-01-30T07:43:15.550Z,69.13
2023-01-30T07:45:44.513Z,69.10
2023-01-30T07:48:13.390Z,69.16
2023-01-30T07:50:40.422Z,68.97
2023-01-30T07:53:09.637Z,68.83
2023-01-30T07:55:36.426Z,69.09
2023-01-30T07:58:03.758Z,69.00
2023-01-30T08:00:30.918Z,69.01
2023-01-30T08:02:57.948Z,68.84
2023-01-30T08:05:25.004Z,68.73
2023-01-30T08:07:51.718Z,68.71
2023-01-30T08:10:18.919Z,68.91
2023-01-30T08:12:45.793Z,68.73
2023-01-30T08:15:12.538Z,68.35
2023-01-30T08:17:39.307Z,68.39
2023-01-30T08:20:06.699Z,68.56
2023-01-30T08:22:33.352Z,68.42
2023-01-30T08:25:00.557Z,67.92
2023-01-30T08:27:27.327Z,67.50
2023-01-30T08:29:54.028Z,67.88
2023-01-30T08:32:20.716Z,67.98
2023-01-30T08:34:47.418Z,68.01
2023-01-30T08:37:14.179Z,68.06
2023-01-30T08:39:40.876Z,67.72
2023-01-30T08:42:07.612Z,67.64
2023-01-30T08:44:34.275Z,67.55
2023-01-30T08:47:00.962Z,67.68
2023-01-30T08:49:27.608Z,67.67
2023-01-30T08:51:54.492Z,67.46
2023-01-30T08:54:21.220Z,67.28
2023-01-30T08:56:47.972Z,67.29
2023-01-30T08:59:14.819Z,66.92
2023-01-30T09:01:41.531Z,66.89
2023-01-30T09:04:08.273Z,66.77
2023-01-30T09:06:35.001Z,66.27
2023-01-30T09:09:01.943Z,66.15
2023-01-30T09:11:28.638Z,66.70
2023-01-30T09:13:55.336Z,65.94
2023-01-30T09:16:22.069Z,66.03
2023-01-30T09:18:48.988Z,66.02
2023-01-30T09:21:15.747Z,65.64
2023-01-30T09:23:42.449Z,65.33
2023-01-30T09:26:09.145Z,65.58
2023-01-30T09:28:36.175Z,65.43
2023-01-30T09:31:03.545Z,65.24
2023-01-30T09:33:30.468Z,65.43
2023-01-30T09:35:57.225Z,65.72
2023-01-30T09:38:23.958Z,65.35
2023-01-30T09:40:59.813Z,65.38
2023-01-30T09:43:26.423Z,65.57
2023-01-30T09:46:20.885Z,64.99
2023-01-30T09:49:07.441Z,65.27
2023-01-30T09:51:37.009Z,65.11
2023-01-30T09:54:22.331Z,65.13
2023-01-30T09:57:20.968Z,65.56
2023-01-30T10:00:15.552Z,65.08
2023-01-30T10:03:08.487Z,65.12
2023-01-30T10:05:54.724Z,64.68
2023-01-30T10:08:48.460Z,64.97
2023-01-30T10:11:44.069Z,64.96
2023-01-30T10:14:44.079Z,64.40
2023-01-30T10:17:32.445Z,64.71
2023-01-30T10:20:26.700Z,64.57
2023-01-30T10:23:18.656Z,64.10
2023-01-30T10:25:58.897Z,64.17
2023-01-30T10:28:38.615Z,63.85
2023-01-30T10:31:15.296Z,63.33
2023-01-30T10:34:00.456Z,63.64
2023-01-30T10:37:00.765Z,63.34
2023-01-30T10:39:55.878Z,62.88
2023-01-30T10:42:40.571Z,63.23
2023-01-30T10:45:20.552Z,63.23
2023-01-30T10:47:59.205Z,62.91
2023-01-30T10:50:50.064Z,63.25
2023-01-30T10:53:50.380Z,63.59
2023-01-30T10:56:26.047Z,62.63
2023-01-30T10:59:07.263Z,63.28
2023-01-30T11:01:44.115Z,62.89
2023-01-30T11:04:34.088Z,62.58
2023-01-30T11:07:02.355Z,63.22
2023-01-30T11:09:41.894Z,63.40
2023-01-30T11:12:08.711Z,63.00
2023-01-30T11:15:04.056Z,62.48
2023-01-30T11:17:42.938Z,61.86
2023-01-30T11:20:19.782Z,62.19
2023-01-30T11:23:05.795Z,62.65
2023-01-30T11:25:46.873Z,62.74
2023-01-30T11:28:17.435Z,62.45
2023-01-30T11:30:49.277Z,61.95
2023-01-30T11:33:18.125Z,61.58
2023-01-30T11:35:56.299Z,61.37
2023-01-30T11:38:29.118Z,61.43
2023-01-30T11:41:22.795Z,61.04
2023-01-30T11:43:49.470Z,60.83
2023-01-30T11:46:20.993Z,60.61
2023-01-30T11:49:32.070Z,60.52
2023-01-30T11:51:44.729Z,60.78
2023-01-30T11:54:18.780Z,59.98
2023-01-30T11:56:58.212Z,59.74
2023-01-30T11:59:26.740Z,60.24
2023-01-30T12:02:01.785Z,60.95
2023-01-30T12:04:28.863Z,61.20
2023-01-30T12:07:08.077Z,62.01
2023-01-30T12:09:38.660Z,62.28
2023-01-30T12:12:37.693Z,62.34
2023-01-30T12:15:24.857Z,62.57
2023-01-30T12:18:29.012Z,62.60
2023-01-30T12:21:05.127Z,62.61
2023-01-30T12:23:40.889Z,63.37
2023-01-30T12:26:20.465Z,62.56
2023-01-30T12:28:52.746Z,62.40
2023-01-30T12:31:24.859Z,62.09
2023-01-30T12:33:51.588Z,61.53
2023-01-30T12:36:26.912Z,61.73
2023-01-30T12:39:05.997Z,61.82
2023-01-30T12:41:38.693Z,61.94
2023-01-30T12:44:29.483Z,61.32
2023-01-30T12:47:17.768Z,61.07
2023-01-30T12:49:47.517Z,61.42
2023-01-30T12:52:41.776Z,60.87
2023-01-30T12:55:46.016Z,60.54
2023-01-30T12:58:20.390Z,61.17
2023-01-30T13:01:06.063Z,60.55
2023-01-30T13:03:52.090Z,60.86
2023-01-30T13:06:37.380Z,61.21
2023-01-30T13:10:04.361Z,61.01
2023-01-30T13:12:43.457Z,60.77
2023-01-30T13:15:23.348Z,60.21
2023-01-30T13:18:02.307Z,60.04
2023-01-30T13:20:38.090Z,60.14
2023-01-30T13:23:10.413Z,59.27
2023-01-30T13:25:46.301Z,58.89
2023-01-30T13:28:18.105Z,59.40
2023-01-30T13:30:48.304Z,58.75
2023-01-30T13:33:40.279Z,59.48
2023-01-30T13:36:24.788Z,59.60
2023-01-30T13:39:06.395Z,59.86
2023-01-30T13:41:37.516Z,59.65
2023-01-30T13:44:34.929Z,59.84
2023-01-30T13:47:40.268Z,60.92
2023-01-30T13:50:46.006Z,61.29
2023-01-30T13:53:31.179Z,61.36
2023-01-30T13:56:39.662Z,61.64
2023-01-30T13:59:26.991Z,61.78
2023-01-30T14:01:59.500Z,61.84
2023-01-30T14:04:41.366Z,62.39
2023-01-30T14:07:25.358Z,63.05
2023-01-30T14:10:13.926Z,63.86
2023-01-30T14:12:44.903Z,64.70
2023-01-30T14:15:19.034Z,65.32
2023-01-30T14:18:02.459Z,65.23
2023-01-30T14:20:32.508Z,65.45
2023-01-30T14:23:06.574Z,66.24
2023-01-30T14:25:42.951Z,65.93
2023-01-30T14:28:09.557Z,66.12
2023-01-30T14:30:45.375Z,66.18
2023-01-30T14:33:21.202Z,66.52
2023-01-30T14:36:08.705Z,66.51
2023-01-30T14:38:37.748Z,66.67
2023-01-30T14:41:04.352Z,67.10
2023-01-30T14:43:43.333Z,67.24
2023-01-30T14:46:29.992Z,67.29
2023-01-30T14:49:04.433Z,67.30
2023-01-30T14:51:40.475Z,67.01
2023-01-30T14:54:23.459Z,67.16
2023-01-30T14:57:04.148Z,67.08
2023-01-30T14:59:33.407Z,67.12
2023-01-30T15:02:08.375Z,66.87
2023-01-30T15:05:03.672Z,67.09
2023-01-30T15:07:40.883Z,66.93
2023-01-30T15:10:24.046Z,66.83
2023-01-30T15:13:15.223Z,67.03
2023-01-30T15:16:28.420Z,66.81
2023-01-30T15:19:23.628Z,66.84
2023-01-30T15:22:24.470Z,66.43
2023-01-30T15:25:10.879Z,66.80
2023-01-30T15:28:12.275Z,66.71
2023-01-30T15:31:03.075Z,66.49
2023-01-30T15:33:31.747Z,66.48
2023-01-30T15:35:59.520Z,65.90
2023-01-30T15:38:31.796Z,65.52
2023-01-30T15:41:02.942Z,65.56
2023-01-30T15:43:41.673Z,65.37
2023-01-30T15:46:24.552Z,65.94
2023-01-30T15:49:09.602Z,65.27
2023-01-30T15:51:36.358Z,65.76
2023-01-30T15:54:10.998Z,65.29
2023-01-30T15:56:40.044Z,65.47
2023-01-30T15:59:08.430Z,65.33
2023-01-30T16:01:35.202Z,65.71
2023-01-30T16:04:07.966Z,65.56
2023-01-30T16:06:37.151Z,65.40
2023-01-30T16:09:21.778Z,65.33
2023-01-30T16:11:48.533Z,65.57
2023-01-30T16:14:20.601Z,65.35
2023-01-30T16:16:50.120Z,65.03
2023-01-30T16:19:41.547Z,65.07
2023-01-30T16:22:19.572Z,65.06
2023-01-30T16:24:50.873Z,65.33
2023-01-30T16:27:29.739Z,64.65
2023-01-30T16:29:59.390Z,65.35
2023-01-30T16:32:31.868Z,65.28
2023-01-30T16:35:27.917Z,64.84
2023-01-30T16:37:57.076Z,64.86
2023-01-30T16:40:30.949Z,64.45
2023-01-30T16:43:16.893Z,64.29
2023-01-30T16:45:52.903Z,64.16
2023-01-30T16:48:19.715Z,63.92
2023-01-30T16:50:48.357Z,63.67
2023-01-30T16:53:24.384Z,64.02
2023-01-30T16:55:58.380Z,64.23
2023-01-30T16:58:32.350Z,64.17
2023-01-30T17:01:05.093Z,63.59
2023-01-30T17:03:43.521Z,64.01
2023-01-30T17:06:23.214Z,63.30
2023-01-30T17:08:55.396Z,63.90
2023-01-30T17:11:39.604Z,62.43
2023-01-30T17:14:15.070Z,63.03
2023-01-30T17:16:43.154Z,62.91
2023-01-30T17:19:09.989Z,63.11
2023-01-30T17:21:45.295Z,63.40
2023-01-30T17:24:16.529Z,62.91
2023-01-30T17:26:43.823Z,63.13
2023-01-30T17:29:23.324Z,62.96
2023-01-30T17:31:56.978Z,62.79
2023-01-30T17:34:24.546Z,62.35
2023-01-30T17:36:53.555Z,62.06
2023-01-30T17:39:22.517Z,61.61
2023-01-30T17:41:49.829Z,61.79
2023-01-30T17:44:16.559Z,61.59
2023-01-30T17:46:49.918Z,61.49
2023-01-30T17:49:21.860Z,62.21
2023-01-30T17:51:49.547Z,61.43
2023-01-30T17:54:20.088Z,60.82
2023-01-30T17:56:56.421Z,61.07
2023-01-30T17:59:23.089Z,61.25
2023-01-30T18:01:51.558Z,60.57
2023-01-30T18:04:19.314Z,60.09
2023-01-30T18:06:50.577Z,59.72
2023-01-30T18:09:20.690Z,59.83
2023-01-30T18:11:48.883Z,59.78
2023-01-30T18:14:16.696Z,60.05
2023-01-30T18:16:44.240Z,59.60
2023-01-30T18:19:16.132Z,58.95
2023-01-30T18:21:45.209Z,59.29
2023-01-30T18:24:13.199Z,59.18
2023-01-30T18:26:40.566Z,59.41
2023-01-30T18:29:09.798Z,58.84
2023-01-30T18:31:38.256Z,58.99
2023-01-30T18:34:07.029Z,59.05
2023-01-30T18:36:35.259Z,58.76
2023-01-30T18:39:01.959Z,58.86
2023-01-30T18:41:29.436Z,58.43
2023-01-30T18:44:01.712Z,58.67
2023-01-30T18:46:29.557Z,58.15
2023-01-30T18:48:57.285Z,58.10
2023-01-30T18:51:29.943Z,58.70
2023-01-30T18:53:57.499Z,58.48
2023-01-30T18:56:25.605Z,58.48
2023-01-30T18:58:53.753Z,58.20
2023-01-30T19:01:23.262Z,58.29
2023-01-30T19:03:50.000Z,58.73
2023-01-30T19:06:18.921Z,58.55
2023-01-30T19:08:45.932Z,58.52
2023-01-30T19:11:33.480Z,58.38
2023-01-30T19:14:00.681Z,58.54
2023-01-30T19:16:29.337Z,58.21
2023-01-30T19:18:56.857Z,57.83
2023-01-30T19:21:24.681Z,57.95
2023-01-30T19:23:51.786Z,58.04
2023-01-30T19:26:20.525Z,57.83
2023-01-30T19:28:47.816Z,58.04
2023-01-30T19:31:17.457Z,57.94
2023-01-30T19:33:45.803Z,58.24
2023-01-30T19:36:13.801Z,57.86
2023-01-30T19:38:41.276Z,57.64
2023-01-30T19:41:13.911Z,57.80
2023-01-30T19:43:41.414Z,57.89
2023-01-30T19:46:10.937Z,58.10
2023-01-30T19:48:42.585Z,58.09
2023-01-30T19:51:21.062Z,57.97
2023-01-30T19:53:55.265Z,58.10
2023-01-30T19:56:24.964Z,57.75
2023-01-30T19:58:53.253Z,57.71
2023-01-30T20:01:22.117Z,57.65
2023-01-30T20:03:49.568Z,57.52
2023-01-30T20:06:26.189Z,57.73
2023-01-30T20:09:00.048Z,57.60
2023-01-30T20:11:27.253Z,57.76
2023-01-30T20:13:54.570Z,57.54
2023-01-30T20:16:25.351Z,57.91
2023-01-30T20:19:01.189Z,57.57
2023-01-30T20:21:29.406Z,57.60
2023-01-30T20:23:57.173Z,57.62
2023-01-30T20:26:26.881Z,57.93
2023-01-30T20:28:57.545Z,57.58
2023-01-30T20:31:26.928Z,57.78
2023-01-30T20:33:57.591Z,57.81
2023-01-30T20:36:27.205Z,57.86
2023-01-30T20:38:55.693Z,57.53
2023-01-30T20:41:24.419Z,57.77
2023-01-30T20:43:53.720Z,57.73
2023-01-30T20:46:23.321Z,57.74
2023-01-30T20:48:52.839Z,57.85
2023-01-30T20:51:32.243Z,57.79
2023-01-30T20:54:01.419Z,57.61
2023-01-30T20:56:33.275Z,57.42
2023-01-30T20:59:02.325Z,57.46
2023-01-30T21:01:29.134Z,57.36
2023-01-30T21:03:56.154Z,57.39
2023-01-30T21:06:41.886Z,57.22
2023-01-30T21:09:17.648Z,57.16
2023-01-30T21:11:44.921Z,56.98
2023-01-30T21:14:12.201Z,56.93
2023-01-30T21:16:39.667Z,56.94
2023-01-30T21:19:08.409Z,56.38
2023-01-30T21:21:41.103Z,56.74
2023-01-30T21:24:11.822Z,56.66
2023-01-30T21:26:41.035Z,56.31
2023-01-30T21:29:08.522Z,56.61
2023-01-30T21:31:37.179Z,56.46
2023-01-30T21:34:04.230Z,56.50
2023-01-30T21:36:31.131Z,56.56
2023-01-30T21:39:16.343Z,56.82
2023-01-30T21:41:51.170Z,56.68
2023-01-30T21:44:19.904Z,56.57
2023-01-30T21:46:48.616Z,56.83
2023-01-30T21:49:16.723Z,56.56
2023-01-30T21:51:45.625Z,56.83
2023-01-30T21:54:12.681Z,56.82
2023-01-30T21:56:40.155Z,56.98
2023-01-30T21:59:07.776Z,56.70
2023-01-30T22:01:36.624Z,56.82
2023-01-30T22:04:05.790Z,56.85
2023-01-30T22:06:32.943Z,56.66
2023-01-30T22:09:01.011Z,56.86
2023-01-30T22:11:30.843Z,57.10
2023-01-30T22:13:58.124Z,57.21
2023-01-30T22:16:27.982Z,56.85
2023-01-30T22:18:56.145Z,57.16
2023-01-30T22:21:26.464Z,56.60
2023-01-30T22:23:54.890Z,56.83
2023-01-30T22:26:23.979Z,56.92
2023-01-30T22:28:56.216Z,56.67
2023-01-30T22:31:24.072Z,56.70
2023-01-30T22:33:54.846Z,56.67
2023-01-30T22:36:26.840Z,56.80
2023-01-30T22:38:54.271Z,56.61
2023-01-30T22:41:26.701Z,56.85
2023-01-30T22:43:58.832Z,56.82
2023-01-30T22:46:31.621Z,56.59
2023-01-30T22:49:00.190Z,56.69
2023-01-30T22:51:39.774Z,57.08
2023-01-30T22:54:09.731Z,57.51
2023-01-30T22:56:41.696Z,57.32
2023-01-30T22:59:09.180Z,57.34
2023-01-30T23:01:41.603Z,57.52
2023-01-30T23:04:16.870Z,57.29
2023-01-30T23:06:44.410Z,57.19
2023-01-30T23:09:19.166Z,57.52
2023-01-30T23:12:24.071Z,57.10
2023-01-30T23:14:50.783Z,57.46
2023-01-30T23:17:36.833Z,57.58
2023-01-30T23:20:03.821Z,57.58
2023-01-30T23:22:30.460Z,57.49
2023-01-30T23:24:57.122Z,57.57
2023-01-30T23:27:24.636Z,58.06
2023-01-30T23:29:51.343Z,57.86
2023-01-30T23:32:21.016Z,58.21
2023-01-30T23:34:48.488Z,58.15
2023-01-30T23:37:15.878Z,58.53
2023-01-30T23:39:42.520Z,58.51
2023-01-30T23:42:09.391Z,58.30
2023-01-30T23:44:36.421Z,58.44
2023-01-30T23:47:03.170Z,58.54
2023-01-30T23:49:29.806Z,58.44
2023-01-30T23:51:56.441Z,58.64
2023-01-30T23:54:23.076Z,58.95
2023-01-30T23:56:49.815Z,59.12
2023-01-30T23:59:16.451Z,59.10
